createdAt,value
2023-03-13T00:00:03.743Z,99751.38
2023-03-13T00:02:10.658Z,99753.56
2023-03-13T00:04:16.437Z,99756.65
2023-03-13T00:06:22.008Z,99749.03
2023-03-13T00:08:27.151Z,99746.33
2023-03-13T00:10:32.796Z,99737.77
2023-03-13T00:12:38.286Z,99737.61
2023-03-13T00:14:43.669Z,99738.17
2023-03-13T00:16:49.177Z,99736.39
2023-03-13T00:18:54.864Z,99731.59
2023-03-13T00:21:00.280Z,99724.52
2023-03-13T00:23:06.489Z,99723.42
2023-03-13T00:25:12.007Z,99722.8
2023-03-13T00:27:17.484Z,99717.75
2023-03-13T00:29:23.186Z,99712.34
2023-03-13T00:31:29.120Z,99701.13
2023-03-13T00:33:34.783Z,99706.42
2023-03-13T00:35:40.217Z,99704.73
2023-03-13T00:37:45.841Z,99708.48
2023-03-13T00:39:51.011Z,99709.27
2023-03-13T00:41:57.000Z,99709.23
2023-03-13T00:44:02.880Z,99704.57
2023-03-13T00:46:08.386Z,99702.07
2023-03-13T00:48:14.188Z,99699.53
2023-03-13T00:50:19.798Z,99697.06
2023-03-13T00:52:24.966Z,99700.61
2023-03-13T00:54:30.727Z,99699.81
2023-03-13T00:56:36.876Z,99697.5
2023-03-13T00:58:42.488Z,99696.59
2023-03-13T01:00:48.025Z,99695.2
2023-03-13T01:02:54.157Z,99692.3
2023-03-13T01:05:01.531Z,99692.89
2023-03-13T01:07:06.810Z,99686.38
2023-03-13T01:09:12.833Z,99684.95
2023-03-13T01:11:19.291Z,99688.7
2023-03-13T01:13:24.804Z,99686.98
2023-03-13T01:15:30.141Z,99686.77
2023-03-13T01:17:35.828Z,99684.2
2023-03-13T01:19:43.465Z,99678.64
2023-03-13T01:21:49.682Z,99674.8
2023-03-13T01:23:54.929Z,99672.8
2023-03-13T01:26:00.417Z,99675.18
2023-03-13T01:28:06.109Z,99675.8
2023-03-13T01:30:11.596Z,99676.9
2023-03-13T01:32:17.338Z,99676.06
2023-03-13T01:34:22.708Z,99683.48
2023-03-13T01:36:28.237Z,99682.77
2023-03-13T01:38:33.752Z,99675.82
2023-03-13T01:40:39.373Z,99671.45
2023-03-13T01:42:44.802Z,99669.09
2023-03-13T01:44:50.198Z,99668.95
2023-03-13T01:46:55.740Z,99668.66
2023-03-13T01:49:01.406Z,99669.39
2023-03-13T01:51:06.615Z,99661.22
2023-03-13T01:53:11.960Z,99661.97
2023-03-13T01:55:18.456Z,99647.35
2023-03-13T01:57:23.787Z,99649.3
2023-03-13T01:59:29.366Z,99651.94
2023-03-13T02:01:36.305Z,99647.23
2023-03-13T02:03:42.803Z,99644.02
2023-03-13T02:05:48.123Z,99643.24
2023-03-13T02:07:54.080Z,99638.02
2023-03-13T02:09:59.429Z,99642.8
2023-03-13T02:12:05.388Z,99646.02
2023-03-13T02:14:10.830Z,99641.98
2023-03-13T02:16:16.576Z,99653.21
2023-03-13T02:18:22.546Z,99649.33
2023-03-13T02:20:27.667Z,99652.38
2023-03-13T02:22:34.207Z,99646.99
2023-03-13T02:24:39.690Z,99647.2
2023-03-13T02:26:46.030Z,99647.34
2023-03-13T02:28:51.334Z,99648.67
2023-03-13T02:30:56.898Z,99649.31
2023-03-13T02:33:02.928Z,99641.91
2023-03-13T02:35:08.282Z,99644.53
2023-03-13T02:37:14.512Z,99650.25
2023-03-13T02:39:19.877Z,99642.16
2023-03-13T02:41:25.001Z,99643.34
2023-03-13T02:43:30.364Z,99643.5
2023-03-13T02:45:35.598Z,99640.05
2023-03-13T02:47:41.239Z,99642.95
2023-03-13T02:49:46.430Z,99644.56
2023-03-13T02:51:51.759Z,99644.08
2023-03-13T02:53:57.384Z,99641.44
2023-03-13T02:56:02.724Z,99636.11
2023-03-13T02:58:08.139Z,99632
2023-03-13T03:00:13.332Z,99638.59
2023-03-13T03:02:19.914Z,99638.75
2023-03-13T03:04:25.361Z,99644.4
2023-03-13T03:06:30.506Z,99642.63
2023-03-13T03:08:35.858Z,99641.13
2023-03-13T03:10:42.324Z,99635.22
2023-03-13T03:12:48.184Z,99636.95
2023-03-13T03:14:53.484Z,99641.53
2023-03-13T03:16:59.096Z,99635.41
2023-03-13T03:19:04.526Z,99628.06
2023-03-13T03:21:09.830Z,99630.47
2023-03-13T03:23:15.194Z,99634.13
2023-03-13T03:25:20.725Z,99635.29
2023-03-13T03:27:26.609Z,99637.86
2023-03-13T03:29:33.005Z,99639.83
2023-03-13T03:31:38.598Z,99631.13
2023-03-13T03:33:44.229Z,99636.84
2023-03-13T03:35:49.584Z,99636.11
2023-03-13T03:37:55.022Z,99640.67
2023-03-13T03:40:00.285Z,99630.23
2023-03-13T03:42:05.922Z,99634.11
2023-03-13T03:44:11.220Z,99629.47
2023-03-13T03:46:17.268Z,99636.12
2023-03-13T03:48:22.973Z,99634.77
2023-03-13T03:50:29.540Z,99635.34
2023-03-13T03:52:34.858Z,99626.94
2023-03-13T03:54:40.689Z,99622.7
2023-03-13T03:56:45.994Z,99618.34
2023-03-13T03:58:51.622Z,99614.45
2023-03-13T04:00:58.047Z,99612.14
2023-03-13T04:03:03.726Z,99612.26
2023-03-13T04:05:09.405Z,99607.32
2023-03-13T04:07:14.892Z,99607.61
2023-03-13T04:09:20.306Z,99613.44
2023-03-13T04:11:28.662Z,99613.81
2023-03-13T04:13:33.905Z,99612.88
2023-03-13T04:15:39.373Z,99608.59
2023-03-13T04:17:45.157Z,99613.41
2023-03-13T04:19:50.623Z,99619.88
2023-03-13T04:21:56.449Z,99621.44
2023-03-13T04:24:01.708Z,99612.52
2023-03-13T04:26:07.156Z,99608.06
2023-03-13T04:28:12.738Z,99606.44
2023-03-13T04:30:20.062Z,99600.76
2023-03-13T04:32:26.943Z,99598.48
2023-03-13T04:34:32.619Z,99599.04
2023-03-13T04:36:38.317Z,99589.45
2023-03-13T04:38:59.540Z,99588.52
2023-03-13T04:41:04.766Z,99588.23
2023-03-13T04:43:11.201Z,99596.13
2023-03-13T04:45:16.397Z,99593.64
2023-03-13T04:47:22.189Z,99587.1
2023-03-13T04:49:27.925Z,99582.74
2023-03-13T04:51:33.270Z,99586.5
2023-03-13T04:53:38.660Z,99587.92
2023-03-13T04:55:44.050Z,99590.53
2023-03-13T04:57:49.661Z,99584.5
2023-03-13T04:59:54.972Z,99577.33
2023-03-13T05:02:01.095Z,99579.23
2023-03-13T05:04:06.607Z,99576.3
2023-03-13T05:06:11.893Z,99583.27
2023-03-13T05:08:17.840Z,99582.5
2023-03-13T05:10:23.297Z,99580.5
2023-03-13T05:12:28.620Z,99579.4
2023-03-13T05:14:34.240Z,99580.7
2023-03-13T05:16:39.601Z,99574.17
2023-03-13T05:18:44.573Z,99573.25
2023-03-13T05:20:50.045Z,99573.83
2023-03-13T05:22:55.524Z,99574.76
2023-03-13T05:25:01.048Z,99578.02
2023-03-13T05:27:06.180Z,99579.7
2023-03-13T05:29:11.675Z,99587.69
2023-03-13T05:31:17.529Z,99590.38
2023-03-13T05:33:23.285Z,99587.16
2023-03-13T05:35:28.662Z,99593.61
2023-03-13T05:37:34.189Z,99594.38
2023-03-13T05:39:41.820Z,99594.88
2023-03-13T05:41:50.159Z,99598.52
2023-03-13T05:43:55.669Z,99598.68
2023-03-13T05:46:01.287Z,99598.48
2023-03-13T05:48:08.764Z,99599.86
2023-03-13T05:50:14.193Z,99593.54
2023-03-13T05:52:21.541Z,99586.13
2023-03-13T05:54:26.676Z,99580.09
2023-03-13T05:56:32.136Z,99582.58
2023-03-13T05:58:38.698Z,99577.85
2023-03-13T06:00:44.053Z,99578.63
2023-03-13T06:02:50.015Z,99578.54
2023-03-13T06:04:56.639Z,99575.77
2023-03-13T06:07:03.089Z,99576.46
2023-03-13T06:09:08.331Z,99583.69
2023-03-13T06:11:15.538Z,99584.25
2023-03-13T06:13:23.382Z,99577.48
2023-03-13T06:15:29.294Z,99573.97
2023-03-13T06:17:34.983Z,99566.95
2023-03-13T06:19:40.656Z,99569.3
2023-03-13T06:21:46.453Z,99564.66
2023-03-13T06:23:52.203Z,99563.41
2023-03-13T06:25:57.997Z,99565.83
2023-03-13T06:28:03.756Z,99554.54
2023-03-13T06:30:09.264Z,99552.78
2023-03-13T06:32:15.067Z,99555.71
2023-03-13T06:34:20.908Z,99556.23
2023-03-13T06:36:27.441Z,99553.98
2023-03-13T06:38:33.544Z,99557.22
2023-03-13T06:40:39.347Z,99555.48
2023-03-13T06:42:45.130Z,99551.39
2023-03-13T06:44:52.270Z,99550.73
2023-03-13T06:46:57.655Z,99553.5
2023-03-13T06:49:03.147Z,99550.44
2023-03-13T06:51:08.922Z,99553.52
2023-03-13T06:53:14.317Z,99551.49
2023-03-13T06:55:19.929Z,99549.41
2023-03-13T06:57:25.543Z,99554.16
2023-03-13T06:59:31.537Z,99553.97
2023-03-13T07:01:36.903Z,99550.16
2023-03-13T07:03:42.357Z,99554.69
2023-03-13T07:05:47.970Z,99551.34
2023-03-13T07:07:55.204Z,99550.4
2023-03-13T07:10:01.848Z,99546.45
2023-03-13T07:12:07.696Z,99539.63
2023-03-13T07:14:18.648Z,99538.96
2023-03-13T07:16:24.249Z,99537.41
2023-03-13T07:18:30.009Z,99530.61
2023-03-13T07:20:36.619Z,99530.72
2023-03-13T07:22:43.542Z,99526.66
2023-03-13T07:24:49.170Z,99522.98
2023-03-13T07:27:08.396Z,99522.05
2023-03-13T07:29:14.217Z,99517.21
2023-03-13T07:31:22.373Z,99516.56
2023-03-13T07:33:28.699Z,99512.33
2023-03-13T07:35:34.578Z,99508.59
2023-03-13T07:37:39.979Z,99506.03
2023-03-13T07:39:46.369Z,99502.95
2023-03-13T07:41:51.639Z,99497.86
2023-03-13T07:43:57.549Z,99493.53
2023-03-13T07:46:03.735Z,99487.67
2023-03-13T07:48:10.260Z,99481.28
2023-03-13T07:50:15.959Z,99478.28
2023-03-13T07:52:21.948Z,99480.3
2023-03-13T07:54:27.426Z,99480.16
2023-03-13T07:56:32.738Z,99472.67
2023-03-13T07:58:38.560Z,99473.23
2023-03-13T08:00:44.200Z,99478.05
2023-03-13T08:02:49.740Z,99476.98
2023-03-13T08:04:59.171Z,99471.27
2023-03-13T08:07:05.412Z,99477.26
2023-03-13T08:09:11.383Z,99478.5
2023-03-13T08:11:17.607Z,99474.09
2023-03-13T08:13:22.999Z,99478.11
2023-03-13T08:15:28.530Z,99471.38
2023-03-13T08:17:35.185Z,99468.83
2023-03-13T08:19:41.114Z,99476.05
2023-03-13T08:21:47.689Z,99475.63
2023-03-13T08:23:53.078Z,99469.39
2023-03-13T08:25:58.553Z,99472.56
2023-03-13T08:28:05.002Z,99472.56
2023-03-13T08:30:10.726Z,99469.09
2023-03-13T08:32:16.677Z,99459.34
2023-03-13T08:34:22.161Z,99460.25
2023-03-13T08:36:27.875Z,99451.45
2023-03-13T08:38:33.804Z,99448.36
2023-03-13T08:40:39.652Z,99445.52
2023-03-13T08:42:45.607Z,99439.3
2023-03-13T08:44:51.408Z,99432.22
2023-03-13T08:46:56.973Z,99432.17
2023-03-13T08:49:03.089Z,99426.19
2023-03-13T08:51:09.152Z,99426.44
2023-03-13T08:53:14.623Z,99423.06
2023-03-13T08:55:20.684Z,99423.88
2023-03-13T08:57:28.763Z,99426.52
2023-03-13T08:59:35.316Z,99415.07
2023-03-13T09:01:42.642Z,99409.27
2023-03-13T09:03:49.448Z,99399.02
2023-03-13T09:05:57.957Z,99401.16
2023-03-13T09:08:04.239Z,99397.29
2023-03-13T09:10:09.892Z,99397.39
2023-03-13T09:12:31.719Z,99394.66
2023-03-13T09:14:38.206Z,99390.27
2023-03-13T09:16:43.915Z,99386.03
2023-03-13T09:18:49.686Z,99383.52
2023-03-13T09:20:55.480Z,99376.77
2023-03-13T09:23:01.367Z,99375.39
2023-03-13T09:25:06.919Z,99375.77
2023-03-13T09:27:12.367Z,99382.89
2023-03-13T09:29:17.799Z,99371.97
2023-03-13T09:31:24.083Z,99374.95
2023-03-13T09:33:30.801Z,99365.2
2023-03-13T09:35:36.617Z,99367.16
2023-03-13T09:37:42.200Z,99365.75
2023-03-13T09:39:47.532Z,99368.52
2023-03-13T09:41:52.900Z,99363.17
2023-03-13T09:43:58.783Z,99360.32
2023-03-13T09:46:05.455Z,99353.3
2023-03-13T09:48:10.965Z,99350.58
2023-03-13T09:50:16.775Z,99354.39
2023-03-13T09:52:22.173Z,99345.51
2023-03-13T09:54:28.050Z,99336.13
2023-03-13T09:56:33.791Z,99340.77
2023-03-13T09:58:39.443Z,99339.13
2023-03-13T10:00:47.983Z,99333.46
2023-03-13T10:02:53.691Z,99330.22
2023-03-13T10:04:59.232Z,99336.55
2023-03-13T10:07:05.008Z,99331.81
2023-03-13T10:09:10.786Z,99326.14
2023-03-13T10:11:16.656Z,99309.77
2023-03-13T10:13:22.222Z,99320.02
2023-03-13T10:15:27.777Z,99317.89
2023-03-13T10:17:33.094Z,99318.27
2023-03-13T10:19:38.597Z,99326.7
2023-03-13T10:21:44.042Z,99319.81
2023-03-13T10:23:49.777Z,99319.81
2023-03-13T10:25:55.379Z,99322.61
2023-03-13T10:28:01.096Z,99316.83
2023-03-13T10:30:06.321Z,99327.12
2023-03-13T10:32:11.764Z,99311.59
2023-03-13T10:34:17.408Z,99316.64
2023-03-13T10:36:22.870Z,99305.89
2023-03-13T10:38:28.929Z,99298.02
2023-03-13T10:40:35.070Z,99291.01
2023-03-13T10:42:40.946Z,99287.48
2023-03-13T10:44:46.386Z,99286.72
2023-03-13T10:46:52.914Z,99279.17
2023-03-13T10:48:58.869Z,99275.94
2023-03-13T10:51:04.610Z,99265.55
2023-03-13T10:53:10.725Z,99261.25
2023-03-13T10:55:16.331Z,99257.26
2023-03-13T10:57:21.921Z,99256.29
2023-03-13T10:59:27.478Z,99251.63
2023-03-13T11:01:33.084Z,99251.13
2023-03-13T11:03:38.849Z,99251.52
2023-03-13T11:05:44.426Z,99254.28
2023-03-13T11:07:53.205Z,99250.64
2023-03-13T11:09:58.469Z,99245.7
2023-03-13T11:12:04.137Z,99245.56
2023-03-13T11:14:09.643Z,99252.29
2023-03-13T11:16:15.174Z,99240.45
2023-03-13T11:18:21.682Z,99232.73
2023-03-13T11:20:27.361Z,99226.9
2023-03-13T11:22:33.189Z,99227.84
2023-03-13T11:24:38.572Z,99218.9
2023-03-13T11:27:04.037Z,99207.55
2023-03-13T11:29:10.809Z,99203.7
2023-03-13T11:31:16.525Z,99195.4
2023-03-13T11:33:22.499Z,99195.24
2023-03-13T11:35:28.192Z,99180.36
2023-03-13T11:37:33.683Z,99162.72
2023-03-13T11:39:39.277Z,99163.81
2023-03-13T11:41:45.076Z,99160.5
2023-03-13T11:43:51.323Z,99155.67
2023-03-13T11:45:57.600Z,99141.03
2023-03-13T11:48:03.751Z,99149.06
2023-03-13T11:50:09.299Z,99142.8
2023-03-13T11:52:15.011Z,99142.59
2023-03-13T11:54:20.960Z,99141.31
2023-03-13T11:56:26.650Z,99142.45
2023-03-13T11:58:32.022Z,99140.31
2023-03-13T12:00:37.732Z,99132.67
2023-03-13T12:02:43.812Z,99134.1
2023-03-13T12:04:49.836Z,99139.59
2023-03-13T12:06:55.949Z,99129.73
2023-03-13T12:09:01.144Z,99132.02
2023-03-13T12:11:06.845Z,99132.96
2023-03-13T12:13:12.564Z,99126.72
2023-03-13T12:15:20.372Z,99125.34
2023-03-13T12:17:26.272Z,99128.02
2023-03-13T12:19:31.893Z,99116.55
2023-03-13T12:21:37.682Z,99117.78
2023-03-13T12:23:43.416Z,99117.88
2023-03-13T12:25:49.487Z,99115.3
2023-03-13T12:27:55.105Z,99114.23
2023-03-13T12:30:01.114Z,99114.42
2023-03-13T12:32:06.694Z,99115.34
2023-03-13T12:34:12.206Z,99109.63
2023-03-13T12:36:18.165Z,99116.14
2023-03-13T12:38:23.651Z,99111.83
2023-03-13T12:40:29.817Z,99109.41
2023-03-13T12:42:35.496Z,99109.36
2023-03-13T12:44:40.885Z,99103.17
2023-03-13T12:46:47.519Z,99098.58
2023-03-13T12:48:53.782Z,99096.13
2023-03-13T12:50:59.186Z,99092.52
2023-03-13T12:53:04.737Z,99094.34
2023-03-13T12:55:10.648Z,99097.2
2023-03-13T12:57:16.315Z,99084.34
2023-03-13T12:59:21.996Z,99081.86
2023-03-13T13:01:27.978Z,99083.42
2023-03-13T13:03:33.811Z,99085.42
2023-03-13T13:05:39.331Z,99082.13
2023-03-13T13:07:44.641Z,99084.24
2023-03-13T13:09:50.314Z,99079.91
2023-03-13T13:11:55.755Z,99076.98
2023-03-13T13:14:01.620Z,99085.72
2023-03-13T13:16:07.660Z,99084.94
2023-03-13T13:18:13.480Z,99089.31
2023-03-13T13:20:18.915Z,99088.64
2023-03-13T13:22:24.424Z,99084.22
2023-03-13T13:24:29.961Z,99081.79
2023-03-13T13:26:35.536Z,99072.13
2023-03-13T13:28:40.906Z,99079.65
2023-03-13T13:30:46.331Z,99076.41
2023-03-13T13:32:52.371Z,99080.69
2023-03-13T13:34:57.885Z,99082.28
2023-03-13T13:37:03.116Z,99076.34
2023-03-13T13:39:08.948Z,99073.81
2023-03-13T13:41:14.636Z,99069.72
2023-03-13T13:43:19.869Z,99068.98
2023-03-13T13:45:28.174Z,99074.27
2023-03-13T13:47:35.089Z,99063.01
2023-03-13T13:49:40.845Z,99067.97
2023-03-13T13:51:47.138Z,99067.09
2023-03-13T13:53:52.730Z,99067.27
2023-03-13T13:55:58.070Z,99068.71
2023-03-13T13:58:03.521Z,99066.87
2023-03-13T14:00:09.216Z,99062.8
2023-03-13T14:02:15.144Z,99061.15
2023-03-13T14:04:20.898Z,99055.41
2023-03-13T14:06:27.238Z,99049.64
2023-03-13T14:08:34.034Z,99049.47
2023-03-13T14:10:40.418Z,99051.8
2023-03-13T14:12:46.833Z,99041.3
2023-03-13T14:14:52.826Z,99048.2
2023-03-13T14:16:58.620Z,99043.08
2023-03-13T14:19:04.674Z,99037.09
2023-03-13T14:21:10.974Z,99037.9
2023-03-13T14:23:16.689Z,99036.25
2023-03-13T14:25:22.094Z,99035.93
2023-03-13T14:27:28.041Z,99030.03
2023-03-13T14:29:35.332Z,99030.02
2023-03-13T14:31:41.708Z,99020.21
2023-03-13T14:33:47.997Z,99016.02
2023-03-13T14:35:54.579Z,99016.73
2023-03-13T14:38:00.710Z,99013.3
2023-03-13T14:40:07.740Z,99002.45
2023-03-13T14:42:14.279Z,98997.83
2023-03-13T14:44:20.214Z,98993.03
2023-03-13T14:46:26.557Z,98982.23
2023-03-13T14:48:33.407Z,98970.54
2023-03-13T14:50:39.279Z,98973.77
2023-03-13T14:52:44.458Z,98972.88
2023-03-13T14:54:50.934Z,98973
2023-03-13T14:56:57.050Z,98962.02
2023-03-13T14:59:02.708Z,98963.55
2023-03-13T15:01:09.226Z,98965.34
2023-03-13T15:03:14.997Z,98963.2
2023-03-13T15:05:21.030Z,98964.66
2023-03-13T15:07:27.075Z,98963.95
2023-03-13T15:09:35.239Z,98969.82
2023-03-13T15:11:41.713Z,98965.95
2023-03-13T15:13:48.372Z,98968.13
2023-03-13T15:15:54.382Z,98961.52
2023-03-13T15:18:01.578Z,98960.95
2023-03-13T15:20:10.657Z,98956.25
2023-03-13T15:22:17.461Z,98958.4
2023-03-13T15:24:25.291Z,98951.73
2023-03-13T15:26:32.238Z,98950.84
2023-03-13T15:28:38.267Z,98952.54
2023-03-13T15:30:43.928Z,98954.98
2023-03-13T15:32:51.520Z,98957.33
2023-03-13T15:34:57.874Z,98954.53
2023-03-13T15:37:04.732Z,98955.48
2023-03-13T15:39:10.974Z,98952.36
2023-03-13T15:41:17.294Z,98955.8
2023-03-13T15:43:23.803Z,98946.53
2023-03-13T15:45:31.240Z,98952.42
2023-03-13T15:47:38.668Z,98946.5
2023-03-13T15:49:45.230Z,98952.02
2023-03-13T15:51:51.766Z,98949.64
2023-03-13T15:54:01.049Z,98949.56
2023-03-13T15:56:07.240Z,98944.8
2023-03-13T15:58:13.523Z,98946.47
2023-03-13T16:00:19.826Z,98943.15
2023-03-13T16:02:26.314Z,98942.2
2023-03-13T16:04:32.907Z,98938.45
2023-03-13T16:06:39.619Z,98939.38
2023-03-13T16:08:46.066Z,98942.18
2023-03-13T16:10:52.367Z,98936.17
2023-03-13T16:12:58.320Z,98931.99
2023-03-13T16:15:04.528Z,98927.5
2023-03-13T16:17:12.399Z,98929.3
2023-03-13T16:19:19.370Z,98935.45
2023-03-13T16:21:25.606Z,98935.86
2023-03-13T16:23:32.319Z,98941.05
2023-03-13T16:25:39.209Z,98937.44
2023-03-13T16:27:47.453Z,98939.47
2023-03-13T16:29:54.654Z,98938.03
2023-03-13T16:32:03.892Z,98940.45
2023-03-13T16:34:10.442Z,98939.36
2023-03-13T16:36:16.584Z,98936.68
2023-03-13T16:38:23.870Z,98937.77
2023-03-13T16:40:30.277Z,98942.06
2023-03-13T16:42:37.077Z,98940.23
2023-03-13T16:44:43.475Z,98935.7
2023-03-13T16:47:06.560Z,98932.09
2023-03-13T16:49:13.730Z,98925.48
2023-03-13T16:51:22.108Z,98927.84
2023-03-13T16:53:29.240Z,98927.2
2023-03-13T16:55:37.037Z,98930.77
2023-03-13T16:57:45.576Z,98931.54
2023-03-13T16:59:53.886Z,98929.88
2023-03-13T17:02:01.950Z,98929.45
2023-03-13T17:04:08.957Z,98934.31
2023-03-13T17:06:15.011Z,98928.56
2023-03-13T17:08:20.907Z,98923.95
2023-03-13T17:10:27.088Z,98930.59
2023-03-13T17:12:36.484Z,98941.13
2023-03-13T17:14:43.471Z,98944.03
2023-03-13T17:16:52.639Z,98938.38
2023-03-13T17:19:03.472Z,98931.46
2023-03-13T17:21:11.183Z,98933.2
2023-03-13T17:23:18.431Z,98937.05
2023-03-13T17:25:26.260Z,98942
2023-03-13T17:27:32.476Z,98934.86
2023-03-13T17:29:38.584Z,98932.86
2023-03-13T17:31:47.036Z,98935.98
2023-03-13T17:33:54.055Z,98933.3
2023-03-13T17:36:01.946Z,98934.16
2023-03-13T17:38:09.858Z,98930.17
2023-03-13T17:40:17.965Z,98933.84
2023-03-13T17:42:27.873Z,98939.67
2023-03-13T17:44:36.143Z,98937.48
2023-03-13T17:46:42.369Z,98934.84
2023-03-13T17:48:49.801Z,98940.84
2023-03-13T17:50:57.149Z,98939.32
2023-03-13T17:53:04.069Z,98931.34
2023-03-13T17:55:10.525Z,98930.7
2023-03-13T17:57:17.978Z,98932.3
2023-03-13T17:59:29.381Z,98919.74
2023-03-13T18:01:42.460Z,98926.88
2023-03-13T18:03:51.961Z,98926.59
2023-03-13T18:06:01.003Z,98925.72
2023-03-13T18:08:10.159Z,98922.58
2023-03-13T18:10:21.689Z,98914.31
2023-03-13T18:12:31.424Z,98906.98
2023-03-13T18:14:39.636Z,98912.26
2023-03-13T18:16:47.612Z,98900.36
2023-03-13T18:18:57.267Z,98899.59
2023-03-13T18:21:04.245Z,98890.86
2023-03-13T18:23:17.256Z,98898.34
2023-03-13T18:25:26.950Z,98900.55
2023-03-13T18:27:35.123Z,98898.77
2023-03-13T18:29:44.455Z,98893.36
2023-03-13T18:31:53.842Z,98902.03
2023-03-13T18:34:08.208Z,98900.27
2023-03-13T18:36:15.918Z,98903.13
2023-03-13T18:38:25.433Z,98899.57
2023-03-13T18:40:35.541Z,98898.07
2023-03-13T18:42:47.695Z,98902.58
2023-03-13T18:44:58.868Z,98894.98
2023-03-13T18:47:08.800Z,98893.88
2023-03-13T18:49:19.100Z,98895.11
2023-03-13T18:51:27.324Z,98889.4
2023-03-13T18:53:36.772Z,98878.98
2023-03-13T18:55:44.587Z,98882.53
2023-03-13T18:57:56.564Z,98879.52
2023-03-13T19:00:06.640Z,98879.83
2023-03-13T19:02:16.862Z,98885.3
2023-03-13T19:04:26.012Z,98875.66
2023-03-13T19:06:36.904Z,98879.52
2023-03-13T19:08:46.309Z,98872.98
2023-03-13T19:11:00.637Z,98871.19
2023-03-13T19:13:17.575Z,98868.3
2023-03-13T19:15:27.720Z,98867.02
2023-03-13T19:17:37.909Z,98865.22
2023-03-13T19:19:46.698Z,98860.64
2023-03-13T19:21:59.600Z,98858.13
2023-03-13T19:24:10.544Z,98852.73
2023-03-13T19:26:25.273Z,98854.73
2023-03-13T19:28:33.270Z,98844.5
2023-03-13T19:30:44.386Z,98852.09
2023-03-13T19:32:57.296Z,98859.75
2023-03-13T19:35:12.344Z,98868.47
2023-03-13T19:37:24.008Z,98873.89
2023-03-13T19:39:52.483Z,98869.75
2023-03-13T19:42:02.723Z,98873.69
2023-03-13T19:44:12.369Z,98866.34
2023-03-13T19:46:24.990Z,98870.48
2023-03-13T19:48:35.309Z,98867.98
2023-03-13T19:50:44.655Z,98868.2
2023-03-13T19:52:58.981Z,98867.69
2023-03-13T19:55:08.941Z,98873.68
2023-03-13T19:57:18.182Z,98874.03
2023-03-13T19:59:27.760Z,98879.03
2023-03-13T20:01:37.154Z,98878.05
2023-03-13T20:03:46.555Z,98878.53
2023-03-13T20:05:58.473Z,98874.97
2023-03-13T20:08:08.766Z,98866.49
2023-03-13T20:10:21.548Z,98862.33
2023-03-13T20:12:33.399Z,98859.38
2023-03-13T20:14:42.421Z,98860.03
2023-03-13T20:16:53.324Z,98851.92
2023-03-13T20:19:04.818Z,98863.49
2023-03-13T20:21:15.172Z,98863.41
2023-03-13T20:23:26.583Z,98861.97
2023-03-13T20:25:37.543Z,98857.66
2023-03-13T20:27:48.268Z,98860.34
2023-03-13T20:29:57.104Z,98851.59
2023-03-13T20:32:07.632Z,98855.48
2023-03-13T20:34:17.415Z,98852.52
2023-03-13T20:36:27.365Z,98854.12
2023-03-13T20:38:35.829Z,98844.08
2023-03-13T20:40:46.992Z,98841.6
2023-03-13T20:42:59.385Z,98843.31
2023-03-13T20:45:13.013Z,98837.41
2023-03-13T20:47:26.120Z,98833.63
2023-03-13T20:49:38.125Z,98830.79
2023-03-13T20:51:46.880Z,98833.41
2023-03-13T20:53:57.509Z,98835.33
2023-03-13T20:56:09.079Z,98841.95
2023-03-13T20:58:21.901Z,98836.94
2023-03-13T21:00:31.567Z,98838.69
2023-03-13T21:02:42.559Z,98841.05
2023-03-13T21:04:52.404Z,98829.89
2023-03-13T21:07:00.964Z,98837.51
2023-03-13T21:09:10.556Z,98832.92
2023-03-13T21:11:17.871Z,98828.74
2023-03-13T21:13:27.259Z,98825.11
2023-03-13T21:15:34.954Z,98813.42
2023-03-13T21:17:42.339Z,98814.97
2023-03-13T21:19:50.492Z,98811.99
2023-03-13T21:21:56.983Z,98812.16
2023-03-13T21:24:06.107Z,98806.38
2023-03-13T21:26:12.744Z,98808.57
2023-03-13T21:28:19.177Z,98813.66
2023-03-13T21:30:27.868Z,98812.2
2023-03-13T21:32:34.476Z,98817.14
2023-03-13T21:34:41.111Z,98807.64
2023-03-13T21:36:46.705Z,98805.52
2023-03-13T21:38:52.494Z,98805.7
2023-03-13T21:40:59.024Z,98807.9
2023-03-13T21:43:04.887Z,98809.28
2023-03-13T21:45:11.435Z,98801.83
2023-03-13T21:47:17.376Z,98807.2
2023-03-13T21:49:24.257Z,98798.25
2023-03-13T21:51:29.866Z,98793.66
2023-03-13T21:53:35.836Z,98782.84
2023-03-13T21:55:41.860Z,98786.45
2023-03-13T21:57:48.796Z,98785.48
2023-03-13T21:59:58.204Z,98788.73
2023-03-13T22:02:04.590Z,98786.73
2023-03-13T22:04:10.333Z,98779
2023-03-13T22:06:16.403Z,98776.44
2023-03-13T22:08:22.106Z,98776.06
2023-03-13T22:10:27.710Z,98773.52
2023-03-13T22:12:33.748Z,98765.6
2023-03-13T22:14:40.684Z,98765.66
2023-03-13T22:16:46.349Z,98765.97
2023-03-13T22:18:52.351Z,98766.64
2023-03-13T22:20:57.855Z,98770.91
2023-03-13T22:23:03.236Z,98766.64
2023-03-13T22:25:08.790Z,98765.33
2023-03-13T22:27:17.030Z,98764.67
2023-03-13T22:29:22.428Z,98767.03
2023-03-13T22:31:28.035Z,98766.64
2023-03-13T22:33:33.996Z,98770.49
2023-03-13T22:35:40.520Z,98762.73
2023-03-13T22:37:46.570Z,98762.92
2023-03-13T22:39:52.162Z,98766.25
2023-03-13T22:41:57.904Z,98764.48
2023-03-13T22:44:03.243Z,98765.36
2023-03-13T22:46:08.692Z,98767.39
2023-03-13T22:48:15.458Z,98769.41
2023-03-13T22:50:20.738Z,98759.58
2023-03-13T22:52:26.058Z,98756.56
2023-03-13T22:54:31.300Z,98751.55
2023-03-13T22:56:37.541Z,98749.95
2023-03-13T22:58:42.975Z,98746.38
2023-03-13T23:00:49.445Z,98747.61
2023-03-13T23:02:55.053Z,98747.62
2023-03-13T23:05:00.523Z,98746.34
2023-03-13T23:07:06.141Z,98740.36
2023-03-13T23:09:11.677Z,98740.53
2023-03-13T23:11:17.292Z,98745.03
2023-03-13T23:13:22.726Z,98736.72
2023-03-13T23:15:54.598Z,98736.58
2023-03-13T23:18:01.935Z,98743.97
2023-03-13T23:20:07.530Z,98742.06
2023-03-13T23:22:12.812Z,98746.91
2023-03-13T23:24:18.027Z,98745.6
2023-03-13T23:26:23.315Z,98746.53
2023-03-13T23:28:28.571Z,98749.03
2023-03-13T23:30:33.851Z,98749.28
2023-03-13T23:32:39.348Z,98748.02
2023-03-13T23:34:47.802Z,98740.97
2023-03-13T23:36:53.006Z,98746.88
2023-03-13T23:38:58.262Z,98741.44
2023-03-13T23:41:03.709Z,98735.16
2023-03-13T23:43:10.263Z,98736.03
2023-03-13T23:45:15.438Z,98732.91
2023-03-13T23:47:20.837Z,98731.95
2023-03-13T23:49:26.052Z,98728.78
2023-03-13T23:51:31.374Z,98722.57
2023-03-13T23:53:36.947Z,98721.58
2023-03-13T23:55:42.170Z,98714.94
2023-03-13T23:57:47.940Z,98717.16
2023-03-13T23:59:54.257Z,98721.33
